Andover, CT (06232)

10:11 PM EDT on September 26, 2016 (GMT -0400)
Shoddy Mill Rd Andover CT | | Change Station

Elev 538 ft 41.74 °N, 72.40 °W | Updated 9 seconds ago

Overcast
Overcast
56.0 °F
Feels Like 56.0 °F
N
0.0
Wind Variable Wind from ESE
Gusts 0.0 mph

Today
High -- | Low -- °F
--% Chance of Precip.
Yesterday
High -- | Low -- °F
Precip. -- in
Pressure 30.07 in
Visibility 10.0 miles
Clouds Overcast 4900 ft
Dew Point 48 °F
Humidity 76%
Rainfall 0.00 in
Snow Depth Not available.
6:41 AM 6:38 PM
Waning Crescent, 15% visible
METAR KIJD 270152Z AUTO 00000KT 10SM OVC049 14/11 A3007 RMK AO2 SLP181 T01440106
Pressure 30.07 in
Visibility 10.0 miles
Clouds Overcast 4900 ft
Dew Point 48 °F
Humidity 76%
Rainfall 0.00 in
Snow Depth Not available.
6:41 AM 6:38 PM
Waning Crescent, 15% visible
METAR KIJD 270152Z AUTO 00000KT 10SM OVC049 14/11 A3007 RMK AO2 SLP181 T01440106

10-Day Weather Forecast

Almanac

Astronomy

Sep. 26, 2016 Rise Set
Actual Time
Civil Twilight
Nautical Twilight
Astronomical Twilight
Moon
Length of Visible Light
Length of Day
Tomorrow will be .
, % of the Moon is Illuminated

Today's Extremes

State Highs State Lows

Community

WunderPhotos

Upload Photos

1,942,020 photos uploaded!

WunderBlog® & News

Nearby

Air Quality

  Air Quality AQ Index Pollutant
Not available.

Snow Depth

Station Depth Elevation

Earthquake Activity

City Distance Mag. Time & Date
Minimum magnitude displayed is 2.5.

Coastal Water Temperatures

Place Temperature

Stations

Nearby Weather Stations

Station Location Temp. Windchill Dew Point Humidity Wind Precip. Elev Updated Type
                   

Watches & Warnings

There are currently no watches in effect.